Terminal Aerodrome Forecast
Issued by NWS Sterling, VA

Home | Current Version | Previous Version | Text Only | Print | Product List | Glossary On
Versions: 1 2 3 4 5 6 7 8 9 10 11 12 13 14 15
000
FTUS41 KLWX 220500
TAFCHO
TAF
KCHO 220540Z 2206/2306 VRB03KT P6SM OVC090
     FM220900 00000KT 5SM BR BKN025 BKN050
     FM221100 00000KT 4SM BR SCT008 BKN015
      TEMPO 2211/2213 31004KT 1SM BR SCT010 BKN020
     FM221300 00000KT P6SM SCT015 BKN040
     FM221700 VRB03KT P6SM VCTS SCT030CB BKN080
     FM222100 VRB03KT P6SM SCT030 BKN080
     FM230400 00000KT 5SM BR OVC090=

USA.gov is the U.S. government's official web portal to all federal, state and local government web resources and services.